Baden-Oos Airport


Codes: EDTB/
Name: Baden-Oos Airport
City: Baden-Baden
Country: Germany
Elevation: 404 ft.
Website:

Photos at Baden-Oos Airport


   Photos courtesy of SpottingLog. You can add your own sightings and photos by signing up for a free trial today.



No photos found.

Weather at Baden-Oos Airport


Time (UTC)DescriptionTempratureWindCloud coverageVisibilityPressureHumidity
21-Feb-2024 03:00Overcast Clouds8°C7 mph, SW100%10000m1025hPa82%
21-Feb-2024 06:00Overcast Clouds7°C7 mph, S100%10000m1025hPa84%
21-Feb-2024 09:00Overcast Clouds8°C7 mph, SW100%10000m1024hPa78%
21-Feb-2024 12:00Overcast Clouds11°C7 mph, SW100%10000m1020hPa59%
21-Feb-2024 15:00Overcast Clouds11°C7 mph, SW100%10000m1017hPa62%
21-Feb-2024 18:00Overcast Clouds10°C9 mph, SW100%10000m1015hPa64%
21-Feb-2024 21:00Light Rain9°C13 mph, SW100%10000m1013hPa80%
22-Feb-2024 00:00Moderate Rain9°C18 mph, SW100%10000m1011hPa86%
22-Feb-2024 03:00Light Rain9°C18 mph, SW100%10000m1007hPa86%
22-Feb-2024 06:00Moderate Rain10°C18 mph, SW100%8462m1005hPa90%
22-Feb-2024 09:00Moderate Rain10°C20 mph, SW100%10000m1003hPa87%
22-Feb-2024 12:00Light Rain10°C18 mph, SW100%10000m1000hPa88%
22-Feb-2024 15:00Light Rain11°C20 mph, SW100%10000m996hPa80%
22-Feb-2024 18:00Moderate Rain11°C20 mph, SW100%9318m995hPa86%
22-Feb-2024 21:00Moderate Rain10°C22 mph, SW100%10000m997hPa79%
23-Feb-2024 00:00Light Rain7°C18 mph, SW100%10000m1001hPa81%
23-Feb-2024 03:00Light Rain6°C13 mph, W99%10000m1001hPa80%
23-Feb-2024 06:00Light Rain5°C9 mph, SW100%10000m1002hPa81%
23-Feb-2024 09:00Overcast Clouds6°C9 mph, SW100%10000m1002hPa70%
23-Feb-2024 12:00Overcast Clouds8°C9 mph, SW100%10000m1001hPa57%
23-Feb-2024 15:00Overcast Clouds8°C7 mph, S100%10000m999hPa57%
23-Feb-2024 18:00Overcast Clouds6°C4 mph, S97%10000m999hPa73%
23-Feb-2024 21:00Overcast Clouds5°C4 mph, S100%10000m999hPa82%
24-Feb-2024 00:00Overcast Clouds5°C7 mph, S100%10000m999hPa83%
24-Feb-2024 03:00Overcast Clouds4°C11 mph, SW96%10000m1000hPa84%
24-Feb-2024 06:00Broken Clouds3°C7 mph, S84%10000m1001hPa83%
24-Feb-2024 09:00Overcast Clouds6°C16 mph, SW96%10000m1002hPa74%
24-Feb-2024 12:00Overcast Clouds8°C11 mph, SW85%10000m1003hPa61%
24-Feb-2024 15:00Broken Clouds9°C7 mph, SW74%10000m1004hPa59%
24-Feb-2024 18:00Light Rain5°C4 mph, SE87%10000m1006hPa79%
24-Feb-2024 21:00Light Rain4°C7 mph, SE65%10000m1006hPa82%
25-Feb-2024 00:00Scattered Clouds4°C7 mph, SE46%10000m1006hPa80%
25-Feb-2024 03:00Broken Clouds5°C9 mph, SW77%10000m1006hPa71%
25-Feb-2024 06:00Light Rain4°C9 mph, SW87%5703m1008hPa93%
25-Feb-2024 09:00Light Rain5°C11 mph, SW94%10000m1008hPa81%
25-Feb-2024 12:00Light Rain7°C7 mph, SW85%10000m1008hPa72%
25-Feb-2024 15:00Light Rain8°C4 mph, S96%10000m1006hPa63%
25-Feb-2024 18:00Overcast Clouds4°C7 mph, E91%10000m1005hPa76%
25-Feb-2024 21:00Overcast Clouds4°C4 mph, SE100%10000m1004hPa79%
26-Feb-2024 00:00Overcast Clouds4°C4 mph, SE100%10000m1002hPa76%